createdAt,value
2019-01-06T00:00:48.465Z,16.30
2019-01-06T00:03:38.937Z,15.93
2019-01-06T00:06:25.660Z,15.63
2019-01-06T00:09:28.920Z,15.80
2019-01-06T00:12:22.011Z,15.80
2019-01-06T00:15:07.046Z,15.27
2019-01-06T00:17:54.002Z,15.33
2019-01-06T00:20:49.635Z,14.63
2019-01-06T00:23:40.510Z,16.33
2019-01-06T00:26:40.720Z,16.27
2019-01-06T00:29:47.089Z,19.33
2019-01-06T00:32:38.059Z,21.60
2019-01-06T00:35:41.934Z,20.73
2019-01-06T00:38:28.542Z,24.27
2019-01-06T00:41:15.078Z,24.17
2019-01-06T00:44:10.278Z,27.63
2019-01-06T00:46:56.994Z,37.03
2019-01-06T00:49:47.837Z,23.27
2019-01-06T00:52:48.047Z,21.30
2019-01-06T00:55:35.942Z,28.40
2019-01-06T00:58:26.559Z,23.23
2019-01-06T01:01:26.879Z,24.73
2019-01-06T01:04:13.568Z,21.53
2019-01-06T01:07:19.646Z,20.20
2019-01-06T01:10:16.192Z,22.20
2019-01-06T01:13:08.025Z,18.13
2019-01-06T01:15:52.045Z,20.50
2019-01-06T01:18:48.621Z,21.77
2019-01-06T01:21:34.175Z,28.77
2019-01-06T01:24:22.005Z,15.83
2019-01-06T01:27:18.035Z,14.93
2019-01-06T01:29:59.425Z,14.07
2019-01-06T01:32:43.985Z,13.90
2019-01-06T01:35:37.349Z,12.70
2019-01-06T01:38:25.166Z,12.93
2019-01-06T01:41:18.645Z,12.77
2019-01-06T01:44:18.632Z,12.70
2019-01-06T01:46:59.109Z,12.03
2019-01-06T01:49:47.029Z,13.90
2019-01-06T01:52:33.362Z,12.43
2019-01-06T01:55:36.104Z,11.50
2019-01-06T01:58:39.162Z,10.83
2019-01-06T02:01:26.915Z,12.53
2019-01-06T02:04:12.742Z,13.07
2019-01-06T02:06:54.755Z,12.47
2019-01-06T02:09:41.077Z,11.23
2019-01-06T02:12:40.812Z,12.23
2019-01-06T02:15:32.302Z,12.47
2019-01-06T02:18:25.080Z,13.73
2019-01-06T02:21:11.372Z,14.13
2019-01-06T02:23:59.264Z,12.67
2019-01-06T02:26:54.165Z,14.20
2019-01-06T02:29:48.090Z,13.57
2019-01-06T02:32:44.915Z,14.87
2019-01-06T02:35:31.187Z,14.87
2019-01-06T02:38:20.258Z,15.13
2019-01-06T02:41:08.105Z,15.63
2019-01-06T02:43:54.641Z,15.60
2019-01-06T02:46:42.785Z,14.77
2019-01-06T02:49:39.951Z,15.43
2019-01-06T02:52:27.635Z,12.93
2019-01-06T02:55:14.220Z,15.30
2019-01-06T02:58:00.598Z,20.20
2019-01-06T03:00:51.027Z,16.87
2019-01-06T03:03:42.331Z,17.47
2019-01-06T03:06:22.476Z,13.83
2019-01-06T03:09:25.817Z,13.70
2019-01-06T03:12:12.193Z,13.53
2019-01-06T03:14:58.578Z,15.13
2019-01-06T03:17:49.115Z,18.23
2019-01-06T03:20:49.008Z,12.40
2019-01-06T03:23:45.714Z,14.33
2019-01-06T03:26:32.085Z,13.53
2019-01-06T03:29:16.903Z,12.77
2019-01-06T03:32:07.908Z,22.93
2019-01-06T03:34:54.158Z,20.67
2019-01-06T03:37:42.072Z,15.47
2019-01-06T03:40:41.912Z,13.73
2019-01-06T03:43:32.700Z,14.37
2019-01-06T03:46:29.380Z,16.97
2019-01-06T03:49:13.101Z,14.97
2019-01-06T03:52:09.904Z,19.17
2019-01-06T03:55:09.949Z,17.60
2019-01-06T03:57:56.400Z,15.17
2019-01-06T04:00:42.678Z,16.93
2019-01-06T04:03:30.733Z,18.03
2019-01-06T04:06:21.199Z,17.23
2019-01-06T04:09:07.489Z,18.13
2019-01-06T04:11:53.840Z,16.27
2019-01-06T04:14:56.880Z,14.80
2019-01-06T04:17:36.156Z,17.10
2019-01-06T04:20:22.870Z,31.60
2019-01-06T04:23:09.123Z,14.63
2019-01-06T04:25:54.105Z,14.17
2019-01-06T04:28:40.299Z,14.07
2019-01-06T04:31:31.125Z,13.13
2019-01-06T04:34:36.910Z,13.57
2019-01-06T04:37:27.640Z,11.93
2019-01-06T04:40:14.249Z,12.97
2019-01-06T04:43:06.012Z,12.57
2019-01-06T04:45:52.364Z,11.30
2019-01-06T04:48:33.914Z,10.70
2019-01-06T04:51:25.535Z,10.67
2019-01-06T04:54:09.478Z,9.90
2019-01-06T04:57:00.096Z,9.30
2019-01-06T04:59:59.790Z,9.27
2019-01-06T05:02:46.111Z,10.37
2019-01-06T05:05:32.863Z,10.10
2019-01-06T05:08:18.375Z,10.33
2019-01-06T05:11:04.769Z,9.30
2019-01-06T05:13:42.260Z,7.80
2019-01-06T05:16:28.698Z,7.90
2019-01-06T05:19:20.177Z,7.57
2019-01-06T05:22:06.360Z,8.30
2019-01-06T05:25:09.429Z,9.43
2019-01-06T05:28:00.151Z,8.67
2019-01-06T05:30:46.583Z,8.80
2019-01-06T05:33:37.383Z,8.60
2019-01-06T05:36:40.381Z,9.03
2019-01-06T05:39:27.134Z,9.57
2019-01-06T05:42:17.747Z,9.97
2019-01-06T05:45:12.679Z,10.23
2019-01-06T05:48:03.195Z,10.20
2019-01-06T05:50:51.095Z,10.33
2019-01-06T05:53:51.124Z,10.03
2019-01-06T05:56:26.880Z,10.33
2019-01-06T05:59:20.417Z,9.70
2019-01-06T06:02:05.113Z,9.30
2019-01-06T06:04:48.210Z,10.13
2019-01-06T06:07:34.475Z,10.87
2019-01-06T06:10:20.876Z,9.90
2019-01-06T06:13:11.657Z,10.40
2019-01-06T06:15:59.552Z,9.30
2019-01-06T06:18:47.595Z,9.20
2019-01-06T06:21:28.375Z,9.33
2019-01-06T06:24:28.158Z,9.80
2019-01-06T06:27:24.901Z,10.33
2019-01-06T06:30:11.540Z,11.30
2019-01-06T06:33:08.323Z,12.00
2019-01-06T06:36:01.798Z,12.73
2019-01-06T06:38:41.931Z,12.50
2019-01-06T06:41:18.366Z,13.83
2019-01-06T06:44:06.196Z,13.47
2019-01-06T06:46:52.281Z,13.57
2019-01-06T06:49:36.863Z,12.67
2019-01-06T06:52:27.416Z,13.27
2019-01-06T06:55:27.160Z,13.67
2019-01-06T06:58:37.238Z,13.00
2019-01-06T07:02:10.436Z,12.43
2019-01-06T07:04:56.799Z,12.77
2019-01-06T07:07:43.019Z,13.33
2019-01-06T07:10:33.508Z,13.23
2019-01-06T07:13:20.522Z,11.57
2019-01-06T07:16:17.181Z,11.33
2019-01-06T07:19:13.502Z,10.90
2019-01-06T07:21:59.758Z,10.97
2019-01-06T07:24:46.339Z,9.93
2019-01-06T07:27:28.489Z,10.17
2019-01-06T07:30:09.370Z,9.57
2019-01-06T07:32:56.708Z,10.53
2019-01-06T07:35:43.128Z,9.43
2019-01-06T07:38:42.978Z,10.03
2019-01-06T07:41:30.874Z,17.13
2019-01-06T07:44:19.044Z,29.73
2019-01-06T07:47:07.555Z,8.93
2019-01-06T07:50:01.134Z,9.80
2019-01-06T07:52:47.333Z,8.20
2019-01-06T07:55:33.702Z,8.17
2019-01-06T07:58:24.165Z,8.80
2019-01-06T08:01:09.599Z,8.03
2019-01-06T08:04:12.289Z,15.40
2019-01-06T08:06:58.792Z,7.67
2019-01-06T08:09:45.055Z,7.97
2019-01-06T08:12:31.352Z,7.73
2019-01-06T08:15:18.224Z,7.57
2019-01-06T08:18:08.703Z,12.83
2019-01-06T08:20:53.231Z,12.00
2019-01-06T08:23:40.026Z,9.03
2019-01-06T08:26:31.175Z,7.50
2019-01-06T08:29:28.261Z,6.23
2019-01-06T08:32:14.779Z,7.60
2019-01-06T08:35:14.516Z,8.10
2019-01-06T08:38:07.891Z,5.87
2019-01-06T08:41:00.524Z,5.10
2019-01-06T08:43:47.760Z,21.67
2019-01-06T08:46:46.940Z,6.10
2019-01-06T08:49:33.200Z,6.27
2019-01-06T08:52:12.991Z,6.00
2019-01-06T08:54:59.211Z,5.83
2019-01-06T08:57:45.576Z,7.07
2019-01-06T09:00:45.605Z,4.03
2019-01-06T09:03:36.262Z,4.50
2019-01-06T09:06:30.255Z,4.80
2019-01-06T09:09:19.470Z,8.37
2019-01-06T09:12:10.866Z,6.70
2019-01-06T09:15:16.801Z,6.30
2019-01-06T09:18:14.228Z,6.23
2019-01-06T09:21:15.544Z,6.30
2019-01-06T09:24:05.733Z,7.30
2019-01-06T09:26:56.500Z,8.37
2019-01-06T09:29:42.871Z,8.40
2019-01-06T09:32:39.905Z,8.00
2019-01-06T09:35:40.057Z,8.10
2019-01-06T09:38:32.236Z,8.43
2019-01-06T09:41:31.558Z,8.50
2019-01-06T09:44:25.270Z,8.23
2019-01-06T09:47:11.650Z,5.10
2019-01-06T09:49:58.070Z,4.63
2019-01-06T09:52:43.206Z,4.40
2019-01-06T09:55:30.008Z,4.93
2019-01-06T09:58:32.070Z,4.60
2019-01-06T10:01:22.661Z,4.47
2019-01-06T10:04:17.556Z,5.10
2019-01-06T10:07:23.249Z,4.23
2019-01-06T10:10:10.081Z,4.60
2019-01-06T10:12:56.297Z,4.00
2019-01-06T10:15:44.103Z,4.93
2019-01-06T10:18:30.429Z,4.27
2019-01-06T10:21:13.079Z,27.50
2019-01-06T10:24:00.922Z,11.07
2019-01-06T10:26:56.718Z,10.67
2019-01-06T10:29:43.212Z,9.90
2019-01-06T10:32:37.344Z,6.23
2019-01-06T10:35:23.949Z,5.83
2019-01-06T10:38:28.554Z,4.77
2019-01-06T10:41:15.317Z,7.43
2019-01-06T10:44:03.174Z,6.00
2019-01-06T10:46:54.307Z,6.70
2019-01-06T10:49:40.474Z,6.03
2019-01-06T10:52:31.509Z,4.70
2019-01-06T10:55:22.467Z,6.17
2019-01-06T10:58:09.393Z,6.20
2019-01-06T11:01:06.606Z,4.93
2019-01-06T11:04:03.519Z,14.60
2019-01-06T11:06:47.894Z,18.50
2019-01-06T11:09:36.137Z,8.63
2019-01-06T11:12:22.572Z,8.20
2019-01-06T11:15:08.727Z,10.70
2019-01-06T11:18:03.128Z,9.37
2019-01-06T11:20:51.204Z,12.10
2019-01-06T11:23:37.491Z,9.90
2019-01-06T11:26:23.749Z,13.53
2019-01-06T11:29:10.047Z,8.03
2019-01-06T11:32:10.273Z,6.23
2019-01-06T11:35:06.713Z,5.80
2019-01-06T11:37:53.097Z,3.67
2019-01-06T11:40:39.368Z,3.10
2019-01-06T11:43:29.784Z,3.60
2019-01-06T11:46:14.669Z,2.90
2019-01-06T11:49:01.238Z,2.80
2019-01-06T11:51:58.929Z,2.90
2019-01-06T11:54:43.593Z,2.50
2019-01-06T11:57:29.796Z,2.40
2019-01-06T12:00:20.402Z,3.13
2019-01-06T12:03:10.801Z,2.90
2019-01-06T12:06:04.374Z,7.00
2019-01-06T12:09:04.535Z,8.80
2019-01-06T12:12:10.701Z,28.47
2019-01-06T12:14:58.713Z,13.13
2019-01-06T12:17:55.830Z,9.53
2019-01-06T12:20:52.890Z,4.40
2019-01-06T12:23:55.656Z,5.27
2019-01-06T12:26:42.232Z,3.20
2019-01-06T12:29:33.103Z,2.70
2019-01-06T12:32:21.076Z,2.40
2019-01-06T12:35:11.471Z,2.40
2019-01-06T12:38:03.832Z,2.50
2019-01-06T12:40:50.357Z,2.30
2019-01-06T12:43:36.586Z,1.80
2019-01-06T12:46:27.698Z,1.57
2019-01-06T12:49:14.085Z,1.60
2019-01-06T12:52:05.909Z,2.03
2019-01-06T12:54:52.585Z,3.27
2019-01-06T12:57:55.772Z,3.13
2019-01-06T13:00:57.947Z,3.80
2019-01-06T13:03:44.228Z,3.97
2019-01-06T13:06:30.997Z,1.83
2019-01-06T13:09:18.889Z,1.50
2019-01-06T13:12:02.268Z,1.63
2019-01-06T13:14:48.971Z,1.70
2019-01-06T13:17:36.873Z,1.20
2019-01-06T13:20:24.869Z,1.40
2019-01-06T13:23:13.002Z,4.40
2019-01-06T13:26:12.697Z,5.20
2019-01-06T13:29:01.813Z,2.00
2019-01-06T13:31:55.663Z,4.10
2019-01-06T13:34:39.004Z,1.97
2019-01-06T13:37:25.475Z,2.10
2019-01-06T13:40:26.885Z,3.20
2019-01-06T13:43:17.908Z,4.23
2019-01-06T13:46:04.822Z,2.07
2019-01-06T13:48:59.206Z,2.00
2019-01-06T13:51:42.010Z,4.30
2019-01-06T13:54:38.614Z,2.80
2019-01-06T13:57:24.852Z,2.60
2019-01-06T14:00:12.937Z,3.00
2019-01-06T14:02:54.181Z,2.20
2019-01-06T14:05:40.950Z,2.10
2019-01-06T14:08:35.287Z,2.57
2019-01-06T14:11:20.748Z,2.50
2019-01-06T14:14:14.819Z,2.63
2019-01-06T14:17:14.466Z,2.50
2019-01-06T14:20:07.963Z,2.10
2019-01-06T14:22:54.334Z,2.00
2019-01-06T14:25:42.254Z,1.80
2019-01-06T14:28:28.626Z,2.20
2019-01-06T14:31:19.103Z,2.30
2019-01-06T14:34:05.394Z,2.43
2019-01-06T14:36:57.571Z,2.47
2019-01-06T14:39:39.669Z,3.80
2019-01-06T14:42:36.257Z,2.90
2019-01-06T14:45:24.471Z,3.10
2019-01-06T14:48:14.827Z,2.77
2019-01-06T14:51:09.943Z,2.80
2019-01-06T14:54:12.709Z,3.00
2019-01-06T14:57:00.609Z,2.80
2019-01-06T14:59:48.552Z,2.63
2019-01-06T15:02:36.513Z,2.60
2019-01-06T15:05:27.242Z,3.57
2019-01-06T15:08:13.692Z,3.30
2019-01-06T15:11:16.958Z,3.23
2019-01-06T15:14:03.282Z,3.57
2019-01-06T15:17:02.719Z,4.43
2019-01-06T15:19:58.985Z,3.90
2019-01-06T15:22:43.038Z,5.07
2019-01-06T15:25:28.717Z,5.00
2019-01-06T15:28:15.069Z,4.30
2019-01-06T15:31:01.783Z,4.27
2019-01-06T15:33:52.587Z,4.30
2019-01-06T15:36:40.519Z,4.40
2019-01-06T15:39:37.237Z,5.60
2019-01-06T15:42:34.398Z,4.30
2019-01-06T15:45:21.129Z,4.97
2019-01-06T15:48:06.670Z,5.60
2019-01-06T15:50:53.040Z,8.10
2019-01-06T15:53:54.667Z,6.73
2019-01-06T15:56:48.698Z,11.47
2019-01-06T15:59:36.516Z,19.40
2019-01-06T16:02:42.806Z,24.93
2019-01-06T16:05:31.321Z,18.73
2019-01-06T16:08:24.925Z,8.77
2019-01-06T16:11:11.100Z,19.43
2019-01-06T16:14:13.715Z,7.40
2019-01-06T16:16:51.788Z,4.13
2019-01-06T16:19:58.134Z,8.90
2019-01-06T16:22:42.407Z,17.77
2019-01-06T16:25:30.378Z,10.90
2019-01-06T16:28:27.244Z,15.53
2019-01-06T16:31:30.242Z,5.20
2019-01-06T16:34:18.295Z,18.10
2019-01-06T16:37:21.010Z,9.20
2019-01-06T16:40:11.110Z,10.70
2019-01-06T16:42:59.097Z,19.07
2019-01-06T16:45:52.647Z,18.07
2019-01-06T16:48:49.345Z,15.57
2019-01-06T16:51:49.757Z,10.27
2019-01-06T16:54:49.638Z,13.87
2019-01-06T16:57:43.152Z,11.23
2019-01-06T17:00:28.316Z,8.33
2019-01-06T17:03:14.975Z,10.83
2019-01-06T17:05:57.639Z,11.93
2019-01-06T17:09:03.999Z,12.40
2019-01-06T17:12:00.454Z,15.23
2019-01-06T17:14:46.779Z,17.20
2019-01-06T17:17:26.988Z,14.70
2019-01-06T17:20:05.837Z,17.27
2019-01-06T17:22:59.101Z,20.60
2019-01-06T17:25:45.481Z,19.03
2019-01-06T17:28:31.721Z,17.50
2019-01-06T17:31:17.951Z,14.73
2019-01-06T17:34:14.124Z,13.10
2019-01-06T17:37:04.615Z,13.13
2019-01-06T17:39:43.431Z,13.07
2019-01-06T17:42:49.534Z,13.93
2019-01-06T17:45:55.436Z,13.57
2019-01-06T17:48:46.316Z,15.97
2019-01-06T17:51:34.828Z,14.33
2019-01-06T17:54:25.242Z,14.70
2019-01-06T17:57:13.148Z,13.93
2019-01-06T18:00:02.434Z,12.63
2019-01-06T18:02:48.771Z,13.70
2019-01-06T18:05:54.905Z,15.27
2019-01-06T18:08:41.591Z,13.77
2019-01-06T18:11:28.075Z,12.17
2019-01-06T18:14:15.804Z,10.53
2019-01-06T18:17:03.625Z,9.70
2019-01-06T18:19:49.990Z,11.43
2019-01-06T18:22:36.270Z,10.83
2019-01-06T18:25:19.892Z,12.13
2019-01-06T18:28:11.297Z,10.87
2019-01-06T18:30:58.074Z,8.90
2019-01-06T18:33:44.259Z,10.10
2019-01-06T18:36:32.855Z,8.27
2019-01-06T18:39:23.782Z,9.03
2019-01-06T18:42:17.374Z,9.60
2019-01-06T18:45:08.929Z,9.97
2019-01-06T18:47:51.935Z,12.27
2019-01-06T18:50:42.446Z,10.80
2019-01-06T18:53:36.269Z,9.57
2019-01-06T18:56:38.959Z,8.00
2019-01-06T18:59:25.343Z,8.67
2019-01-06T19:02:11.620Z,9.23
2019-01-06T19:05:02.338Z,7.63
2019-01-06T19:07:52.773Z,8.60
2019-01-06T19:10:52.212Z,8.83
2019-01-06T19:13:38.594Z,9.20
2019-01-06T19:16:24.777Z,9.10
2019-01-06T19:19:27.216Z,8.73
2019-01-06T19:22:25.776Z,8.57
2019-01-06T19:25:11.996Z,8.13
2019-01-06T19:27:58.720Z,9.17
2019-01-06T19:30:53.570Z,9.47
2019-01-06T19:33:37.951Z,10.10
2019-01-06T19:36:24.567Z,11.63
2019-01-06T19:39:27.422Z,10.47
2019-01-06T19:42:13.718Z,12.43
2019-01-06T19:45:07.149Z,12.37
2019-01-06T19:47:53.357Z,14.07
2019-01-06T19:50:47.032Z,12.00
2019-01-06T19:53:30.108Z,12.53
2019-01-06T19:56:16.628Z,12.03
2019-01-06T19:59:19.828Z,13.20
2019-01-06T20:02:04.972Z,13.80
2019-01-06T20:05:02.175Z,13.20
2019-01-06T20:07:49.435Z,13.73
2019-01-06T20:10:32.376Z,12.87
2019-01-06T20:13:18.647Z,12.73
2019-01-06T20:16:17.684Z,14.83
2019-01-06T20:19:13.909Z,16.47
2019-01-06T20:22:17.093Z,15.37
2019-01-06T20:25:12.711Z,17.27
2019-01-06T20:28:08.001Z,15.57
2019-01-06T20:31:14.803Z,16.17
2019-01-06T20:34:15.504Z,15.10
2019-01-06T20:37:00.312Z,13.80
2019-01-06T20:39:46.936Z,15.77
2019-01-06T20:42:33.619Z,14.63
2019-01-06T20:45:22.468Z,13.83
2019-01-06T20:48:19.422Z,14.67
2019-01-06T20:51:07.388Z,15.50
2019-01-06T20:54:04.487Z,18.40
2019-01-06T20:57:07.931Z,18.03
2019-01-06T20:59:59.469Z,18.00
2019-01-06T21:02:55.863Z,17.97
2019-01-06T21:05:46.826Z,16.50
2019-01-06T21:08:40.356Z,17.20
2019-01-06T21:11:28.308Z,18.80
2019-01-06T21:14:18.877Z,16.80
2019-01-06T21:17:05.533Z,15.17
2019-01-06T21:19:57.272Z,14.30
2019-01-06T21:22:45.295Z,16.00
2019-01-06T21:25:30.100Z,14.50
2019-01-06T21:28:16.497Z,14.20
2019-01-06T21:31:03.225Z,15.43
2019-01-06T21:33:50.028Z,15.70
2019-01-06T21:36:28.707Z,14.60
2019-01-06T21:39:15.413Z,14.40
2019-01-06T21:41:59.528Z,15.07
2019-01-06T21:44:51.549Z,15.80
2019-01-06T21:47:38.218Z,15.47
2019-01-06T21:50:26.417Z,15.37
2019-01-06T21:53:13.397Z,15.70
2019-01-06T21:56:06.932Z,16.80
2019-01-06T21:59:09.663Z,16.80
2019-01-06T22:02:02.659Z,19.67
2019-01-06T22:04:50.702Z,17.57
2019-01-06T22:07:36.851Z,17.57
2019-01-06T22:10:23.852Z,18.53
2019-01-06T22:13:03.934Z,24.83
2019-01-06T22:16:10.222Z,24.83
2019-01-06T22:18:57.067Z,26.27
2019-01-06T22:21:50.871Z,25.00
2019-01-06T22:24:41.758Z,21.00
2019-01-06T22:27:32.288Z,20.67
2019-01-06T22:30:22.442Z,18.87
2019-01-06T22:33:09.001Z,17.20
2019-01-06T22:35:59.889Z,19.80
2019-01-06T22:38:42.383Z,19.07
2019-01-06T22:41:40.555Z,18.50
2019-01-06T22:44:27.512Z,33.13
2019-01-06T22:47:17.932Z,81.20
2019-01-06T22:50:00.541Z,20.60
2019-01-06T22:52:46.736Z,25.07
2019-01-06T22:55:43.324Z,22.43
2019-01-06T22:58:29.460Z,38.57
2019-01-06T23:01:32.249Z,16.87
2019-01-06T23:04:11.171Z,18.37
2019-01-06T23:07:11.049Z,18.40
2019-01-06T23:09:57.298Z,18.90
2019-01-06T23:12:43.375Z,16.67
2019-01-06T23:15:37.253Z,13.43
2019-01-06T23:18:34.290Z,12.53
2019-01-06T23:21:20.583Z,12.13
2019-01-06T23:24:08.635Z,12.47
2019-01-06T23:26:54.960Z,13.90
2019-01-06T23:29:46.183Z,20.20
2019-01-06T23:32:46.164Z,30.30
2019-01-06T23:35:49.482Z,19.47
2019-01-06T23:38:36.785Z,15.10
2019-01-06T23:41:27.281Z,14.60
2019-01-06T23:44:15.158Z,13.80
2019-01-06T23:47:01.570Z,14.40
2019-01-06T23:49:43.759Z,15.37
2019-01-06T23:52:27.223Z,18.23
2019-01-06T23:55:13.528Z,16.73
2019-01-06T23:58:02.866Z,12.93
